sensor_id;sensor_type;location;lat;lon;timestamp;P1;durP1;ratioP1;P2;durP2;ratioP2
76373;SDS011;65197;50.164;8.012;2023-08-06T00:01:59;6.78;;;4.15;;
76373;SDS011;65197;50.164;8.012;2023-08-06T00:04:24;4.88;;;3.90;;
76373;SDS011;65197;50.164;8.012;2023-08-06T00:06:50;5.15;;;4.00;;
76373;SDS011;65197;50.164;8.012;2023-08-06T00:09:15;5.50;;;3.53;;
76373;SDS011;65197;50.164;8.012;2023-08-06T00:11:40;5.45;;;3.70;;
76373;SDS011;65197;50.164;8.012;2023-08-06T00:14:08;5.43;;;3.55;;
76373;SDS011;65197;50.164;8.012;2023-08-06T00:16:34;5.20;;;3.78;;
76373;SDS011;65197;50.164;8.012;2023-08-06T00:18:59;5.88;;;3.45;;
76373;SDS011;65197;50.164;8.012;2023-08-06T00:21:24;6.93;;;4.05;;
76373;SDS011;65197;50.164;8.012;2023-08-06T00:23:50;6.82;;;3.83;;
76373;SDS011;65197;50.164;8.012;2023-08-06T00:26:17;6.30;;;3.85;;
76373;SDS011;65197;50.164;8.012;2023-08-06T00:28:42;7.25;;;4.18;;
76373;SDS011;65197;50.164;8.012;2023-08-06T00:31:08;5.82;;;3.70;;
76373;SDS011;65197;50.164;8.012;2023-08-06T00:33:33;8.45;;;4.43;;
76373;SDS011;65197;50.164;8.012;2023-08-06T00:35:58;7.75;;;4.07;;
76373;SDS011;65197;50.164;8.012;2023-08-06T00:38:24;5.88;;;4.00;;
76373;SDS011;65197;50.164;8.012;2023-08-06T00:40:49;5.85;;;3.88;;
76373;SDS011;65197;50.164;8.012;2023-08-06T00:43:14;5.22;;;3.92;;
76373;SDS011;65197;50.164;8.012;2023-08-06T00:45:40;6.40;;;3.85;;
76373;SDS011;65197;50.164;8.012;2023-08-06T00:48:05;6.30;;;4.10;;
76373;SDS011;65197;50.164;8.012;2023-08-06T00:50:32;6.35;;;4.20;;
76373;SDS011;65197;50.164;8.012;2023-08-06T00:52:57;5.47;;;3.85;;
76373;SDS011;65197;50.164;8.012;2023-08-06T00:55:23;7.20;;;4.15;;
76373;SDS011;65197;50.164;8.012;2023-08-06T00:57:49;6.50;;;4.65;;
76373;SDS011;65197;50.164;8.012;2023-08-06T01:00:16;8.30;;;4.82;;
76373;SDS011;65197;50.164;8.012;2023-08-06T01:02:41;6.22;;;3.90;;
76373;SDS011;65197;50.164;8.012;2023-08-06T01:05:07;6.65;;;4.40;;
76373;SDS011;65197;50.164;8.012;2023-08-06T01:10:55;7.40;;;3.95;;
76373;SDS011;65197;50.164;8.012;2023-08-06T01:13:27;6.55;;;4.15;;
76373;SDS011;65197;50.164;8.012;2023-08-06T01:16:06;6.38;;;4.00;;
76373;SDS011;65197;50.164;8.012;2023-08-06T01:18:34;6.53;;;3.80;;
76373;SDS011;65197;50.164;8.012;2023-08-06T01:21:00;6.40;;;4.45;;
76373;SDS011;65197;50.164;8.012;2023-08-06T01:23:25;6.55;;;4.43;;
76373;SDS011;65197;50.164;8.012;2023-08-06T01:26:02;5.93;;;4.30;;
76373;SDS011;65197;50.164;8.012;2023-08-06T01:31:36;6.07;;;4.28;;
76373;SDS011;65197;50.164;8.012;2023-08-06T01:34:05;8.65;;;4.53;;
76373;SDS011;65197;50.164;8.012;2023-08-06T01:36:34;5.05;;;3.78;;
76373;SDS011;65197;50.164;8.012;2023-08-06T01:39:00;5.90;;;5.03;;
76373;SDS011;65197;50.164;8.012;2023-08-06T01:41:25;8.00;;;4.88;;
76373;SDS011;65197;50.164;8.012;2023-08-06T01:43:51;6.10;;;4.68;;
76373;SDS011;65197;50.164;8.012;2023-08-06T01:46:16;6.00;;;4.57;;
76373;SDS011;65197;50.164;8.012;2023-08-06T01:48:42;6.97;;;5.00;;
76373;SDS011;65197;50.164;8.012;2023-08-06T01:51:08;10.20;;;4.78;;
76373;SDS011;65197;50.164;8.012;2023-08-06T01:53:33;6.40;;;4.25;;
76373;SDS011;65197;50.164;8.012;2023-08-06T01:55:59;7.38;;;5.03;;
76373;SDS011;65197;50.164;8.012;2023-08-06T01:58:24;5.75;;;4.00;;
76373;SDS011;65197;50.164;8.012;2023-08-06T02:00:50;5.85;;;4.68;;
76373;SDS011;65197;50.164;8.012;2023-08-06T02:03:15;6.05;;;4.70;;
76373;SDS011;65197;50.164;8.012;2023-08-06T02:05:40;6.60;;;4.18;;
76373;SDS011;65197;50.164;8.012;2023-08-06T02:08:06;6.88;;;4.93;;
76373;SDS011;65197;50.164;8.012;2023-08-06T02:10:31;7.63;;;4.38;;
76373;SDS011;65197;50.164;8.012;2023-08-06T02:12:57;6.65;;;4.47;;
76373;SDS011;65197;50.164;8.012;2023-08-06T02:15:22;6.57;;;4.97;;
76373;SDS011;65197;50.164;8.012;2023-08-06T02:17:48;6.85;;;4.85;;
76373;SDS011;65197;50.164;8.012;2023-08-06T02:20:13;7.43;;;4.85;;
76373;SDS011;65197;50.164;8.012;2023-08-06T02:22:38;5.57;;;4.28;;
76373;SDS011;65197;50.164;8.012;2023-08-06T02:25:04;8.52;;;4.53;;
76373;SDS011;65197;50.164;8.012;2023-08-06T02:27:30;5.53;;;4.10;;
76373;SDS011;65197;50.164;8.012;2023-08-06T02:29:55;8.63;;;4.55;;
76373;SDS011;65197;50.164;8.012;2023-08-06T02:32:20;6.45;;;4.70;;
76373;SDS011;65197;50.164;8.012;2023-08-06T02:34:46;8.90;;;4.88;;
76373;SDS011;65197;50.164;8.012;2023-08-06T02:37:11;7.20;;;4.50;;
76373;SDS011;65197;50.164;8.012;2023-08-06T02:39:36;6.03;;;3.85;;
76373;SDS011;65197;50.164;8.012;2023-08-06T02:42:04;6.68;;;4.10;;
76373;SDS011;65197;50.164;8.012;2023-08-06T02:44:31;8.40;;;5.13;;
76373;SDS011;65197;50.164;8.012;2023-08-06T02:46:57;8.27;;;3.88;;
76373;SDS011;65197;50.164;8.012;2023-08-06T02:49:22;6.07;;;4.40;;
76373;SDS011;65197;50.164;8.012;2023-08-06T02:51:47;6.32;;;4.50;;
76373;SDS011;65197;50.164;8.012;2023-08-06T02:54:13;6.47;;;4.28;;
76373;SDS011;65197;50.164;8.012;2023-08-06T02:56:38;9.45;;;5.05;;
76373;SDS011;65197;50.164;8.012;2023-08-06T02:59:03;6.78;;;4.30;;
76373;SDS011;65197;50.164;8.012;2023-08-06T03:01:29;7.05;;;4.38;;
76373;SDS011;65197;50.164;8.012;2023-08-06T03:03:54;9.88;;;4.57;;
76373;SDS011;65197;50.164;8.012;2023-08-06T03:06:20;6.15;;;4.40;;
76373;SDS011;65197;50.164;8.012;2023-08-06T03:08:45;9.85;;;4.57;;
76373;SDS011;65197;50.164;8.012;2023-08-06T03:11:10;7.85;;;4.90;;
76373;SDS011;65197;50.164;8.012;2023-08-06T03:13:36;7.07;;;4.75;;
76373;SDS011;65197;50.164;8.012;2023-08-06T03:16:01;6.57;;;4.78;;
76373;SDS011;65197;50.164;8.012;2023-08-06T03:18:27;8.05;;;4.45;;
76373;SDS011;65197;50.164;8.012;2023-08-06T03:20:52;8.05;;;5.00;;
76373;SDS011;65197;50.164;8.012;2023-08-06T03:23:18;6.22;;;4.40;;
76373;SDS011;65197;50.164;8.012;2023-08-06T03:25:44;6.80;;;4.35;;
76373;SDS011;65197;50.164;8.012;2023-08-06T03:28:09;9.15;;;4.40;;
76373;SDS011;65197;50.164;8.012;2023-08-06T03:30:35;5.55;;;4.07;;
76373;SDS011;65197;50.164;8.012;2023-08-06T03:33:00;7.38;;;4.32;;
76373;SDS011;65197;50.164;8.012;2023-08-06T03:35:26;7.80;;;4.47;;
76373;SDS011;65197;50.164;8.012;2023-08-06T03:37:51;9.02;;;4.82;;
76373;SDS011;65197;50.164;8.012;2023-08-06T03:40:17;6.00;;;4.32;;
76373;SDS011;65197;50.164;8.012;2023-08-06T03:42:42;6.45;;;4.40;;
76373;SDS011;65197;50.164;8.012;2023-08-06T03:45:08;8.88;;;4.90;;
76373;SDS011;65197;50.164;8.012;2023-08-06T03:47:33;9.23;;;5.35;;
76373;SDS011;65197;50.164;8.012;2023-08-06T03:49:59;8.93;;;4.50;;
76373;SDS011;65197;50.164;8.012;2023-08-06T03:52:24;9.40;;;5.20;;
76373;SDS011;65197;50.164;8.012;2023-08-06T03:54:50;6.85;;;4.90;;
76373;SDS011;65197;50.164;8.012;2023-08-06T03:57:15;7.88;;;4.90;;
76373;SDS011;65197;50.164;8.012;2023-08-06T03:59:41;10.68;;;5.57;;
76373;SDS011;65197;50.164;8.012;2023-08-06T04:02:06;13.02;;;5.40;;
76373;SDS011;65197;50.164;8.012;2023-08-06T04:04:31;8.52;;;5.25;;
76373;SDS011;65197;50.164;8.012;2023-08-06T04:06:57;9.65;;;5.20;;
76373;SDS011;65197;50.164;8.012;2023-08-06T04:09:22;11.40;;;5.18;;
76373;SDS011;65197;50.164;8.012;2023-08-06T04:11:48;8.65;;;5.53;;
76373;SDS011;65197;50.164;8.012;2023-08-06T04:14:13;9.45;;;5.63;;
76373;SDS011;65197;50.164;8.012;2023-08-06T04:16:38;11.95;;;6.15;;
76373;SDS011;65197;50.164;8.012;2023-08-06T04:19:04;9.05;;;5.05;;
76373;SDS011;65197;50.164;8.012;2023-08-06T04:21:29;9.23;;;5.53;;
76373;SDS011;65197;50.164;8.012;2023-08-06T04:23:55;26.02;;;6.68;;
76373;SDS011;65197;50.164;8.012;2023-08-06T04:26:21;10.27;;;5.10;;
76373;SDS011;65197;50.164;8.012;2023-08-06T04:28:46;18.73;;;5.50;;
76373;SDS011;65197;50.164;8.012;2023-08-06T04:31:12;8.95;;;4.78;;
76373;SDS011;65197;50.164;8.012;2023-08-06T04:33:37;10.43;;;4.78;;
76373;SDS011;65197;50.164;8.012;2023-08-06T04:36:02;14.73;;;4.75;;
76373;SDS011;65197;50.164;8.012;2023-08-06T04:38:28;8.90;;;4.93;;
76373;SDS011;65197;50.164;8.012;2023-08-06T04:40:53;10.32;;;5.30;;
76373;SDS011;65197;50.164;8.012;2023-08-06T04:43:19;7.50;;;5.13;;
76373;SDS011;65197;50.164;8.012;2023-08-06T04:45:51;9.43;;;4.22;;
76373;SDS011;65197;50.164;8.012;2023-08-06T04:48:19;8.70;;;5.07;;
76373;SDS011;65197;50.164;8.012;2023-08-06T04:50:44;7.10;;;3.88;;
76373;SDS011;65197;50.164;8.012;2023-08-06T04:53:11;11.00;;;4.32;;
76373;SDS011;65197;50.164;8.012;2023-08-06T04:55:36;6.03;;;3.63;;
76373;SDS011;65197;50.164;8.012;2023-08-06T04:58:02;8.70;;;4.45;;
76373;SDS011;65197;50.164;8.012;2023-08-06T05:00:27;6.30;;;3.83;;
76373;SDS011;65197;50.164;8.012;2023-08-06T05:02:53;5.85;;;3.42;;
76373;SDS011;65197;50.164;8.012;2023-08-06T05:05:18;5.80;;;3.55;;
76373;SDS011;65197;50.164;8.012;2023-08-06T05:07:45;4.50;;;3.10;;
76373;SDS011;65197;50.164;8.012;2023-08-06T05:10:13;5.18;;;3.88;;
76373;SDS011;65197;50.164;8.012;2023-08-06T05:12:38;4.53;;;2.78;;
76373;SDS011;65197;50.164;8.012;2023-08-06T05:15:04;9.60;;;3.50;;
76373;SDS011;65197;50.164;8.012;2023-08-06T05:17:29;7.07;;;3.38;;
76373;SDS011;65197;50.164;8.012;2023-08-06T05:19:55;5.03;;;2.97;;
76373;SDS011;65197;50.164;8.012;2023-08-06T05:22:20;9.32;;;3.05;;
76373;SDS011;65197;50.164;8.012;2023-08-06T05:24:45;6.75;;;2.90;;
76373;SDS011;65197;50.164;8.012;2023-08-06T05:27:11;5.68;;;2.30;;
76373;SDS011;65197;50.164;8.012;2023-08-06T05:29:36;3.28;;;2.30;;
76373;SDS011;65197;50.164;8.012;2023-08-06T05:32:02;3.70;;;2.42;;
76373;SDS011;65197;50.164;8.012;2023-08-06T05:34:27;3.78;;;2.10;;
76373;SDS011;65197;50.164;8.012;2023-08-06T05:36:52;2.92;;;2.00;;
76373;SDS011;65197;50.164;8.012;2023-08-06T05:39:18;3.00;;;1.92;;
76373;SDS011;65197;50.164;8.012;2023-08-06T05:41:43;3.45;;;2.42;;
76373;SDS011;65197;50.164;8.012;2023-08-06T05:44:09;5.03;;;2.10;;
76373;SDS011;65197;50.164;8.012;2023-08-06T05:46:34;21.33;;;3.15;;
76373;SDS011;65197;50.164;8.012;2023-08-06T05:48:59;3.67;;;1.95;;
76373;SDS011;65197;50.164;8.012;2023-08-06T05:51:26;3.47;;;2.15;;
76373;SDS011;65197;50.164;8.012;2023-08-06T05:53:51;6.65;;;2.20;;
76373;SDS011;65197;50.164;8.012;2023-08-06T05:56:17;3.22;;;2.00;;
76373;SDS011;65197;50.164;8.012;2023-08-06T05:58:42;14.32;;;2.55;;
76373;SDS011;65197;50.164;8.012;2023-08-06T06:01:08;5.20;;;2.25;;
76373;SDS011;65197;50.164;8.012;2023-08-06T06:03:33;2.60;;;1.70;;
76373;SDS011;65197;50.164;8.012;2023-08-06T06:05:59;2.90;;;1.70;;
76373;SDS011;65197;50.164;8.012;2023-08-06T06:08:26;2.50;;;1.30;;
76373;SDS011;65197;50.164;8.012;2023-08-06T06:10:51;2.30;;;1.20;;
76373;SDS011;65197;50.164;8.012;2023-08-06T06:13:17;1.80;;;1.08;;
76373;SDS011;65197;50.164;8.012;2023-08-06T06:15:42;4.50;;;1.40;;
76373;SDS011;65197;50.164;8.012;2023-08-06T06:18:08;2.72;;;1.40;;
76373;SDS011;65197;50.164;8.012;2023-08-06T06:20:33;2.60;;;1.30;;
76373;SDS011;65197;50.164;8.012;2023-08-06T06:22:58;1.45;;;1.00;;
76373;SDS011;65197;50.164;8.012;2023-08-06T06:25:24;3.05;;;1.13;;
76373;SDS011;65197;50.164;8.012;2023-08-06T06:27:49;1.65;;;1.10;;
76373;SDS011;65197;50.164;8.012;2023-08-06T06:30:15;1.35;;;0.98;;
76373;SDS011;65197;50.164;8.012;2023-08-06T06:32:40;1.65;;;0.80;;
76373;SDS011;65197;50.164;8.012;2023-08-06T06:35:06;1.50;;;1.05;;
76373;SDS011;65197;50.164;8.012;2023-08-06T06:37:32;2.80;;;1.30;;
76373;SDS011;65197;50.164;8.012;2023-08-06T06:39:57;1.52;;;1.00;;
76373;SDS011;65197;50.164;8.012;2023-08-06T06:42:22;1.35;;;0.82;;
76373;SDS011;65197;50.164;8.012;2023-08-06T06:44:48;2.20;;;1.30;;
76373;SDS011;65197;50.164;8.012;2023-08-06T06:47:13;3.78;;;1.40;;
76373;SDS011;65197;50.164;8.012;2023-08-06T06:49:39;2.40;;;1.63;;
76373;SDS011;65197;50.164;8.012;2023-08-06T06:52:04;4.03;;;2.00;;
76373;SDS011;65197;50.164;8.012;2023-08-06T06:54:30;3.05;;;1.73;;
76373;SDS011;65197;50.164;8.012;2023-08-06T06:56:56;2.63;;;2.05;;
76373;SDS011;65197;50.164;8.012;2023-08-06T06:59:21;3.85;;;1.80;;
76373;SDS011;65197;50.164;8.012;2023-08-06T07:01:46;4.53;;;2.13;;
76373;SDS011;65197;50.164;8.012;2023-08-06T07:04:12;2.70;;;1.80;;
76373;SDS011;65197;50.164;8.012;2023-08-06T07:06:37;5.68;;;2.10;;
76373;SDS011;65197;50.164;8.012;2023-08-06T07:09:03;2.85;;;1.83;;
76373;SDS011;65197;50.164;8.012;2023-08-06T07:11:28;4.18;;;1.80;;
76373;SDS011;65197;50.164;8.012;2023-08-06T07:13:57;2.72;;;1.83;;
76373;SDS011;65197;50.164;8.012;2023-08-06T07:16:25;2.42;;;1.60;;
76373;SDS011;65197;50.164;8.012;2023-08-06T07:18:51;2.85;;;1.60;;
76373;SDS011;65197;50.164;8.012;2023-08-06T07:21:18;4.45;;;1.75;;
76373;SDS011;65197;50.164;8.012;2023-08-06T07:23:43;3.25;;;1.73;;
76373;SDS011;65197;50.164;8.012;2023-08-06T07:26:08;2.47;;;1.60;;
76373;SDS011;65197;50.164;8.012;2023-08-06T07:28:34;3.40;;;1.77;;
76373;SDS011;65197;50.164;8.012;2023-08-06T07:30:59;2.75;;;1.77;;
76373;SDS011;65197;50.164;8.012;2023-08-06T07:33:25;4.50;;;2.00;;
76373;SDS011;65197;50.164;8.012;2023-08-06T07:35:50;2.58;;;2.00;;
76373;SDS011;65197;50.164;8.012;2023-08-06T07:38:15;2.90;;;2.00;;
76373;SDS011;65197;50.164;8.012;2023-08-06T07:40:42;3.55;;;2.40;;
76373;SDS011;65197;50.164;8.012;2023-08-06T07:43:07;3.25;;;1.67;;
76373;SDS011;65197;50.164;8.012;2023-08-06T07:45:36;3.10;;;2.03;;
76373;SDS011;65197;50.164;8.012;2023-08-06T07:48:01;4.07;;;1.50;;
76373;SDS011;65197;50.164;8.012;2023-08-06T07:50:27;3.45;;;1.35;;
76373;SDS011;65197;50.164;8.012;2023-08-06T07:52:53;1.98;;;1.33;;
76373;SDS011;65197;50.164;8.012;2023-08-06T07:55:18;1.45;;;1.00;;
76373;SDS011;65197;50.164;8.012;2023-08-06T07:57:43;1.90;;;0.95;;
76373;SDS011;65197;50.164;8.012;2023-08-06T08:00:09;1.90;;;1.02;;
76373;SDS011;65197;50.164;8.012;2023-08-06T08:02:35;2.55;;;1.40;;
76373;SDS011;65197;50.164;8.012;2023-08-06T08:05:00;1.60;;;1.20;;
76373;SDS011;65197;50.164;8.012;2023-08-06T08:07:25;1.48;;;1.20;;
76373;SDS011;65197;50.164;8.012;2023-08-06T08:09:53;2.53;;;1.48;;
76373;SDS011;65197;50.164;8.012;2023-08-06T08:12:18;2.83;;;1.30;;
76373;SDS011;65197;50.164;8.012;2023-08-06T08:14:44;2.33;;;1.35;;
76373;SDS011;65197;50.164;8.012;2023-08-06T08:17:10;1.90;;;1.27;;
76373;SDS011;65197;50.164;8.012;2023-08-06T08:19:37;2.10;;;1.40;;
76373;SDS011;65197;50.164;8.012;2023-08-06T08:22:02;1.52;;;1.08;;
76373;SDS011;65197;50.164;8.012;2023-08-06T08:24:28;1.52;;;1.13;;
76373;SDS011;65197;50.164;8.012;2023-08-06T08:26:55;2.58;;;1.02;;
76373;SDS011;65197;50.164;8.012;2023-08-06T08:29:21;1.83;;;1.10;;
76373;SDS011;65197;50.164;8.012;2023-08-06T08:31:47;1.50;;;1.30;;
76373;SDS011;65197;50.164;8.012;2023-08-06T08:34:15;2.78;;;1.15;;
76373;SDS011;65197;50.164;8.012;2023-08-06T08:36:41;1.92;;;0.95;;
76373;SDS011;65197;50.164;8.012;2023-08-06T08:39:07;1.63;;;1.08;;
76373;SDS011;65197;50.164;8.012;2023-08-06T08:41:32;1.05;;;0.85;;
76373;SDS011;65197;50.164;8.012;2023-08-06T08:43:58;1.05;;;0.77;;
76373;SDS011;65197;50.164;8.012;2023-08-06T08:46:31;1.55;;;0.88;;
76373;SDS011;65197;50.164;8.012;2023-08-06T08:48:58;0.93;;;0.63;;
76373;SDS011;65197;50.164;8.012;2023-08-06T08:51:25;1.73;;;1.00;;
76373;SDS011;65197;50.164;8.012;2023-08-06T08:53:52;1.35;;;0.90;;
76373;SDS011;65197;50.164;8.012;2023-08-06T08:56:20;1.92;;;0.85;;
76373;SDS011;65197;50.164;8.012;2023-08-06T08:58:46;2.33;;;0.90;;
76373;SDS011;65197;50.164;8.012;2023-08-06T09:01:11;2.08;;;1.00;;
76373;SDS011;65197;50.164;8.012;2023-08-06T09:03:37;1.23;;;0.70;;
76373;SDS011;65197;50.164;8.012;2023-08-06T09:06:04;3.05;;;0.93;;
76373;SDS011;65197;50.164;8.012;2023-08-06T09:08:34;1.30;;;1.00;;
76373;SDS011;65197;50.164;8.012;2023-08-06T09:11:04;2.55;;;0.90;;
76373;SDS011;65197;50.164;8.012;2023-08-06T09:13:30;2.15;;;1.20;;
76373;SDS011;65197;50.164;8.012;2023-08-06T09:15:55;1.52;;;1.05;;
76373;SDS011;65197;50.164;8.012;2023-08-06T09:18:27;1.45;;;1.20;;
76373;SDS011;65197;50.164;8.012;2023-08-06T09:20:54;1.00;;;0.85;;
76373;SDS011;65197;50.164;8.012;2023-08-06T09:23:19;3.00;;;1.02;;
76373;SDS011;65197;50.164;8.012;2023-08-06T09:25:45;1.20;;;0.70;;
76373;SDS011;65197;50.164;8.012;2023-08-06T09:28:10;0.80;;;0.80;;
76373;SDS011;65197;50.164;8.012;2023-08-06T09:30:36;1.65;;;1.10;;
76373;SDS011;65197;50.164;8.012;2023-08-06T09:33:02;1.77;;;1.10;;
76373;SDS011;65197;50.164;8.012;2023-08-06T09:35:29;1.30;;;1.10;;
76373;SDS011;65197;50.164;8.012;2023-08-06T09:37:55;1.58;;;0.82;;
76373;SDS011;65197;50.164;8.012;2023-08-06T09:40:23;1.13;;;1.00;;
76373;SDS011;65197;50.164;8.012;2023-08-06T09:42:53;0.65;;;0.63;;
76373;SDS011;65197;50.164;8.012;2023-08-06T09:45:18;0.75;;;0.75;;
76373;SDS011;65197;50.164;8.012;2023-08-06T09:47:44;0.68;;;0.68;;
76373;SDS011;65197;50.164;8.012;2023-08-06T09:50:19;1.42;;;0.80;;
76373;SDS011;65197;50.164;8.012;2023-08-06T09:52:48;1.88;;;0.98;;
76373;SDS011;65197;50.164;8.012;2023-08-06T09:55:16;0.95;;;0.75;;
76373;SDS011;65197;50.164;8.012;2023-08-06T09:57:43;1.33;;;0.77;;
76373;SDS011;65197;50.164;8.012;2023-08-06T10:00:09;1.00;;;0.88;;
76373;SDS011;65197;50.164;8.012;2023-08-06T10:02:39;0.98;;;0.75;;
76373;SDS011;65197;50.164;8.012;2023-08-06T10:05:05;0.63;;;0.63;;
76373;SDS011;65197;50.164;8.012;2023-08-06T10:07:31;0.70;;;0.70;;
76373;SDS011;65197;50.164;8.012;2023-08-06T10:09:57;0.45;;;0.45;;
76373;SDS011;65197;50.164;8.012;2023-08-06T10:12:23;0.60;;;0.50;;
76373;SDS011;65197;50.164;8.012;2023-08-06T10:14:51;0.90;;;0.43;;
76373;SDS011;65197;50.164;8.012;2023-08-06T10:19:47;0.70;;;0.55;;
76373;SDS011;65197;50.164;8.012;2023-08-06T10:22:15;0.40;;;0.40;;
76373;SDS011;65197;50.164;8.012;2023-08-06T10:24:49;0.68;;;0.60;;
76373;SDS011;65197;50.164;8.012;2023-08-06T10:27:28;0.40;;;0.40;;
76373;SDS011;65197;50.164;8.012;2023-08-06T10:29:54;0.73;;;0.70;;
76373;SDS011;65197;50.164;8.012;2023-08-06T10:32:20;1.90;;;0.77;;
76373;SDS011;65197;50.164;8.012;2023-08-06T10:37:18;1.13;;;0.80;;
76373;SDS011;65197;50.164;8.012;2023-08-06T10:39:53;0.93;;;0.73;;
76373;SDS011;65197;50.164;8.012;2023-08-06T10:42:21;0.73;;;0.70;;
76373;SDS011;65197;50.164;8.012;2023-08-06T10:45:15;0.45;;;0.45;;
76373;SDS011;65197;50.164;8.012;2023-08-06T10:47:44;0.35;;;0.22;;
76373;SDS011;65197;50.164;8.012;2023-08-06T10:50:11;0.98;;;0.50;;
76373;SDS011;65197;50.164;8.012;2023-08-06T10:52:45;3.72;;;0.70;;
76373;SDS011;65197;50.164;8.012;2023-08-06T10:55:12;2.33;;;1.02;;
76373;SDS011;65197;50.164;8.012;2023-08-06T10:57:38;1.67;;;0.90;;
76373;SDS011;65197;50.164;8.012;2023-08-06T11:00:04;1.77;;;0.80;;
76373;SDS011;65197;50.164;8.012;2023-08-06T11:02:35;0.95;;;0.68;;
76373;SDS011;65197;50.164;8.012;2023-08-06T11:05:07;0.68;;;0.40;;
76373;SDS011;65197;50.164;8.012;2023-08-06T11:07:34;0.98;;;0.50;;
76373;SDS011;65197;50.164;8.012;2023-08-06T11:10:07;0.70;;;0.70;;
76373;SDS011;65197;50.164;8.012;2023-08-06T11:12:34;0.85;;;0.55;;
76373;SDS011;65197;50.164;8.012;2023-08-06T11:15:00;2.70;;;0.65;;
76373;SDS011;65197;50.164;8.012;2023-08-06T11:17:30;0.65;;;0.65;;
76373;SDS011;65197;50.164;8.012;2023-08-06T11:20:00;1.30;;;0.98;;
76373;SDS011;65197;50.164;8.012;2023-08-06T11:22:27;1.15;;;1.00;;
76373;SDS011;65197;50.164;8.012;2023-08-06T11:24:52;1.65;;;1.20;;
76373;SDS011;65197;50.164;8.012;2023-08-06T11:27:19;2.22;;;0.68;;
76373;SDS011;65197;50.164;8.012;2023-08-06T11:29:44;2.45;;;1.10;;
76373;SDS011;65197;50.164;8.012;2023-08-06T11:32:10;1.75;;;1.13;;
76373;SDS011;65197;50.164;8.012;2023-08-06T11:34:36;2.38;;;1.13;;
76373;SDS011;65197;50.164;8.012;2023-08-06T11:37:05;1.92;;;1.00;;
76373;SDS011;65197;50.164;8.012;2023-08-06T11:39:35;1.50;;;1.17;;
76373;SDS011;65197;50.164;8.012;2023-08-06T11:42:07;3.47;;;1.27;;
76373;SDS011;65197;50.164;8.012;2023-08-06T11:44:33;2.45;;;1.20;;
76373;SDS011;65197;50.164;8.012;2023-08-06T11:47:01;1.83;;;1.30;;
76373;SDS011;65197;50.164;8.012;2023-08-06T11:52:17;2.40;;;1.10;;
76373;SDS011;65197;50.164;8.012;2023-08-06T11:54:59;1.67;;;1.33;;
76373;SDS011;65197;50.164;8.012;2023-08-06T11:57:29;2.05;;;1.40;;
76373;SDS011;65197;50.164;8.012;2023-08-06T11:59:58;2.20;;;1.48;;
76373;SDS011;65197;50.164;8.012;2023-08-06T12:02:27;2.55;;;1.30;;
76373;SDS011;65197;50.164;8.012;2023-08-06T12:05:03;2.83;;;1.50;;
76373;SDS011;65197;50.164;8.012;2023-08-06T12:07:30;2.22;;;1.67;;
76373;SDS011;65197;50.164;8.012;2023-08-06T12:09:57;2.72;;;1.58;;
76373;SDS011;65197;50.164;8.012;2023-08-06T12:12:23;2.72;;;1.65;;
76373;SDS011;65197;50.164;8.012;2023-08-06T12:14:49;2.10;;;1.50;;
76373;SDS011;65197;50.164;8.012;2023-08-06T12:17:14;3.00;;;2.20;;
76373;SDS011;65197;50.164;8.012;2023-08-06T12:19:39;2.67;;;1.50;;
76373;SDS011;65197;50.164;8.012;2023-08-06T12:22:05;3.40;;;1.60;;
76373;SDS011;65197;50.164;8.012;2023-08-06T12:24:30;3.42;;;2.10;;
76373;SDS011;65197;50.164;8.012;2023-08-06T12:26:57;2.97;;;1.70;;
76373;SDS011;65197;50.164;8.012;2023-08-06T12:29:23;2.10;;;1.60;;
76373;SDS011;65197;50.164;8.012;2023-08-06T12:31:48;3.38;;;1.60;;
76373;SDS011;65197;50.164;8.012;2023-08-06T12:34:14;2.17;;;1.48;;
76373;SDS011;65197;50.164;8.012;2023-08-06T12:36:39;2.90;;;1.60;;
76373;SDS011;65197;50.164;8.012;2023-08-06T12:39:04;4.40;;;1.70;;
76373;SDS011;65197;50.164;8.012;2023-08-06T12:41:30;2.15;;;1.42;;
76373;SDS011;65197;50.164;8.012;2023-08-06T12:43:55;2.28;;;1.60;;
76373;SDS011;65197;50.164;8.012;2023-08-06T12:46:21;2.78;;;1.60;;
76373;SDS011;65197;50.164;8.012;2023-08-06T12:48:46;2.10;;;1.45;;
76373;SDS011;65197;50.164;8.012;2023-08-06T12:51:13;1.92;;;1.30;;
76373;SDS011;65197;50.164;8.012;2023-08-06T12:53:39;3.20;;;1.83;;
76373;SDS011;65197;50.164;8.012;2023-08-06T12:56:04;1.50;;;1.25;;
76373;SDS011;65197;50.164;8.012;2023-08-06T12:58:30;1.90;;;1.35;;
76373;SDS011;65197;50.164;8.012;2023-08-06T13:00:56;1.90;;;1.40;;
76373;SDS011;65197;50.164;8.012;2023-08-06T13:03:21;2.22;;;1.33;;
76373;SDS011;65197;50.164;8.012;2023-08-06T13:05:46;2.05;;;1.63;;
76373;SDS011;65197;50.164;8.012;2023-08-06T13:08:12;4.63;;;1.60;;
76373;SDS011;65197;50.164;8.012;2023-08-06T13:10:37;1.63;;;1.40;;
76373;SDS011;65197;50.164;8.012;2023-08-06T13:13:02;2.90;;;1.80;;
76373;SDS011;65197;50.164;8.012;2023-08-06T13:15:28;2.85;;;1.55;;
76373;SDS011;65197;50.164;8.012;2023-08-06T13:17:54;2.97;;;1.73;;
76373;SDS011;65197;50.164;8.012;2023-08-06T13:20:19;2.72;;;1.90;;
76373;SDS011;65197;50.164;8.012;2023-08-06T13:22:45;2.80;;;1.50;;
76373;SDS011;65197;50.164;8.012;2023-08-06T13:25:11;4.53;;;1.75;;
76373;SDS011;65197;50.164;8.012;2023-08-06T13:27:39;2.92;;;1.73;;
76373;SDS011;65197;50.164;8.012;2023-08-06T13:30:04;4.18;;;2.17;;
76373;SDS011;65197;50.164;8.012;2023-08-06T13:32:30;3.92;;;1.80;;
76373;SDS011;65197;50.164;8.012;2023-08-06T13:34:57;2.55;;;1.80;;
76373;SDS011;65197;50.164;8.012;2023-08-06T13:37:22;2.95;;;1.77;;
76373;SDS011;65197;50.164;8.012;2023-08-06T13:39:48;2.92;;;1.92;;
76373;SDS011;65197;50.164;8.012;2023-08-06T13:42:13;2.97;;;1.75;;
76373;SDS011;65197;50.164;8.012;2023-08-06T13:44:38;1.92;;;1.40;;
76373;SDS011;65197;50.164;8.012;2023-08-06T13:47:04;4.32;;;1.70;;
76373;SDS011;65197;50.164;8.012;2023-08-06T13:49:29;2.03;;;1.52;;
76373;SDS011;65197;50.164;8.012;2023-08-06T13:51:54;1.73;;;1.30;;
76373;SDS011;65197;50.164;8.012;2023-08-06T13:54:20;2.90;;;1.50;;
76373;SDS011;65197;50.164;8.012;2023-08-06T13:56:46;1.42;;;1.10;;
76373;SDS011;65197;50.164;8.012;2023-08-06T13:59:11;1.63;;;1.00;;
76373;SDS011;65197;50.164;8.012;2023-08-06T14:01:38;2.05;;;1.20;;
76373;SDS011;65197;50.164;8.012;2023-08-06T14:04:03;1.15;;;1.00;;
76373;SDS011;65197;50.164;8.012;2023-08-06T14:06:29;1.52;;;1.02;;
76373;SDS011;65197;50.164;8.012;2023-08-06T14:08:55;1.20;;;1.10;;
76373;SDS011;65197;50.164;8.012;2023-08-06T14:11:21;1.27;;;0.90;;
76373;SDS011;65197;50.164;8.012;2023-08-06T14:13:46;0.90;;;0.80;;
76373;SDS011;65197;50.164;8.012;2023-08-06T14:16:12;1.10;;;0.80;;
76373;SDS011;65197;50.164;8.012;2023-08-06T14:18:37;1.67;;;0.73;;
76373;SDS011;65197;50.164;8.012;2023-08-06T14:21:03;0.73;;;0.70;;
76373;SDS011;65197;50.164;8.012;2023-08-06T14:23:29;0.70;;;0.70;;
76373;SDS011;65197;50.164;8.012;2023-08-06T14:25:54;1.15;;;0.70;;
76373;SDS011;65197;50.164;8.012;2023-08-06T14:28:19;1.05;;;0.45;;
76373;SDS011;65197;50.164;8.012;2023-08-06T14:30:45;1.15;;;0.60;;
76373;SDS011;65197;50.164;8.012;2023-08-06T14:33:10;1.15;;;0.80;;
76373;SDS011;65197;50.164;8.012;2023-08-06T14:35:35;0.38;;;0.38;;
76373;SDS011;65197;50.164;8.012;2023-08-06T14:38:01;0.73;;;0.43;;
76373;SDS011;65197;50.164;8.012;2023-08-06T14:40:26;0.70;;;0.52;;
76373;SDS011;65197;50.164;8.012;2023-08-06T14:42:58;0.80;;;0.65;;
76373;SDS011;65197;50.164;8.012;2023-08-06T14:45:24;0.65;;;0.63;;
76373;SDS011;65197;50.164;8.012;2023-08-06T14:47:49;0.93;;;0.60;;
76373;SDS011;65197;50.164;8.012;2023-08-06T14:50:14;0.45;;;0.45;;
76373;SDS011;65197;50.164;8.012;2023-08-06T14:52:40;0.68;;;0.60;;
76373;SDS011;65197;50.164;8.012;2023-08-06T14:55:05;1.00;;;0.70;;
76373;SDS011;65197;50.164;8.012;2023-08-06T14:57:31;1.00;;;0.90;;